Huvudsida
METAR-TAF:

METAR-TAF

Flygplatser :

El Salvador, El Salvador

latitud: 13-26N, longitud: 089-03W, höjd: 25 m

Aktuellt väderrapport

Denna rapport gjordes för 21 minuter sedan, klockan 23:19 UTC
Vind 2 kt från väst/sydväst
Temperatur 27°C
Fuktighet 74%
Tryck 1009 hPa
Sikt 10 km eller mer
Inga moln under 1 500 m eller inga cumulonimbus

METAR: MSLP 182319Z 25002KT CAVOK 27/22 Q1009 NOSIG

Tid: 17:40 (23:40 UTC)

Väderprognos

Denna rapport gjordes för 2 timmar och 15 minuter sedan, klockan 21:25 UTC
Prognos gäller från 19 kl. 00 UTC till 19 kl. 24 UTC
Vind 2 kt varierande vindriktning
Sikt 10 km eller mer
Inga moln under 1 500 m eller inga cumulonimbus
Temporärt
från 19 kl. 19 UTC till 19 kl. 24 UTC
Vind 6 kt från syd/sydväst
Sikt 10 km eller mer
Få moln på en höjd av 6000 ft

TAF: MSLP 182125Z 1900/1924 VRB02KT CAVOK TX33/1917Z TN24/1910Z TEMPO 1919/1924 20006KT 9999 FEW060

Aktuella väderrapporter och prognoser från 4000 flygplatser (METAR- och TAF-rapporter).

De tillgängliga stationerna syns som gula och röda prickar på kartan.

För musen över prickarna för att se namnen på stationerna.

Klicka sedan för att få väderrapporter och prognoser.

För att ändra kartan: Klicka på de gröna knapparna med ett svart kors på för att zooma in; den gröna knappen med ett streck på för att zooma ut; eller på de gröna pilarna för angränsande kartor.


METAR-TAF: